Time;durP1;ratioP1;P1;durP2;ratioP2;P2;SDS_P1;SDS_P2;PMS_P1;PMS_P2;Temp;Humidity;BMP_temperature;BMP_pressure;BME280_temperature;BME280_humidity;BME280_pressure;Samples;Min_cycle;Max_cycle;Signal;HPM_P1;HPM_P2
2023/07/02 00:02:36;;;;;;;14.50;12.90;;;;;;;14.70;87.24;98314.97;431138;1268;140424;-68
2023/07/02 00:13:01;;;;;;;15.60;13.20;;;;;;;14.76;87.68;98312.82;430990;1273;139967;-68
2023/07/02 00:23:25;;;;;;;17.60;13.70;;;;;;;14.83;88.12;98311.23;431191;1271;140360;-69
2023/07/02 00:33:50;;;;;;;15.10;12.80;;;;;;;14.89;88.41;98310.88;431887;1268;139928;-69
2023/07/02 00:44:13;;;;;;;15.40;12.10;;;;;;;14.99;88.84;98303.82;431447;1272;140094;-70
2023/07/02 00:54:38;;;;;;;11.70;10.40;;;;;;;15.07;88.89;98300.66;431042;1272;139837;-68
2023/07/02 01:05:02;;;;;;;13.70;12.30;;;;;;;15.14;89.39;98287.08;431404;1268;140192;-70
2023/07/02 01:15:27;;;;;;;13.30;11.10;;;;;;;15.22;89.86;98283.77;430773;1267;140412;-68
2023/07/02 01:25:52;;;;;;;11.70;10.40;;;;;;;15.28;89.99;98278.46;430789;1272;140040;-69
2023/07/02 01:36:17;;;;;;;11.70;10.30;;;;;;;15.35;90.20;98269.42;431408;1272;141411;-70
2023/07/02 01:46:41;;;;;;;10.80;9.60;;;;;;;15.46;90.28;98269.48;431142;1273;140273;-70
2023/07/02 01:57:05;;;;;;;12.50;11.20;;;;;;;15.58;90.12;98262.14;430878;1272;140353;-70
2023/07/02 02:07:29;;;;;;;9.90;8.70;;;;;;;15.68;89.84;98254.20;431196;1272;140444;-68
2023/07/02 02:17:53;;;;;;;12.90;10.20;;;;;;;15.78;89.16;98251.83;430858;1272;140513;-69
2023/07/02 02:28:17;;;;;;;10.70;9.50;;;;;;;15.90;88.75;98246.40;430973;1267;140777;-69
2023/07/02 02:38:41;;;;;;;11.60;9.00;;;;;;;15.98;88.75;98242.86;431086;1272;139213;-69
2023/07/02 02:49:06;;;;;;;8.90;8.00;;;;;;;16.03;88.49;98244.45;431274;1268;140758;-70
2023/07/02 02:59:30;;;;;;;9.40;8.50;;;;;;;16.08;87.66;98235.77;430784;1271;140086;-70
2023/07/02 03:09:54;;;;;;;9.00;8.20;;;;;;;16.16;86.68;98236.89;431051;1270;139611;-70
2023/07/02 03:20:18;;;;;;;8.40;7.50;;;;;;;16.25;86.09;98230.94;431126;1273;140783;-69
2023/07/02 03:30:42;;;;;;;8.30;7.30;;;;;;;16.39;85.50;98235.33;430892;1273;140486;-69
2023/07/02 03:41:07;;;;;;;8.80;7.90;;;;;;;16.54;84.91;98244.05;431019;1272;140525;-69
2023/07/02 03:51:31;;;;;;;8.80;7.90;;;;;;;16.65;84.35;98248.54;430847;1273;139765;-69
2023/07/02 04:01:55;;;;;;;9.90;7.70;;;;;;;16.74;83.45;98256.02;431212;1267;139720;-69
2023/07/02 04:12:21;;;;;;;11.70;7.60;;;;;;;16.90;83.03;98256.23;430950;1272;140616;-69
2023/07/02 04:22:45;;;;;;;8.60;7.80;;;;;;;17.13;82.44;98256.01;431015;1268;139712;-69
2023/07/02 04:33:13;;;;;;;9.70;7.60;;;;;;;17.22;81.72;98264.99;431098;1272;139699;-70
2023/07/02 04:43:37;;;;;;;8.10;7.30;;;;;;;17.56;81.51;98267.61;431889;1272;139501;-70
2023/07/02 04:54:02;;;;;;;9.30;8.40;;;;;;;18.03;80.45;98272.52;431116;1273;140299;-68
2023/07/02 05:04:26;;;;;;;11.80;6.90;;;;;;;18.21;79.74;98277.20;431489;1272;141333;-71
2023/07/02 05:14:50;;;;;;;7.90;6.20;;;;;;;18.64;78.57;98277.80;431977;1272;140521;-70
2023/07/02 05:25:14;;;;;;;6.80;6.20;;;;;;;18.55;77.79;98289.39;431485;1272;139046;-70
2023/07/02 05:35:38;;;;;;;7.10;6.40;;;;;;;18.44;77.56;98299.30;432342;1270;139905;-70
2023/07/02 05:46:02;;;;;;;6.10;5.50;;;;;;;18.95;76.90;98307.13;431918;1270;140511;-70
2023/07/02 05:56:26;;;;;;;8.60;5.20;;;;;;;19.64;75.49;98311.75;431219;1270;139366;-70
2023/07/02 06:06:50;;;;;;;7.90;4.40;;;;;;;20.66;73.16;98328.07;430873;1272;139885;-70
2023/07/02 06:17:15;;;;;;;5.30;4.40;;;;;;;20.92;70.69;98328.04;430868;1272;139142;-70
2023/07/02 06:27:39;;;;;;;6.20;4.00;;;;;;;20.97;69.75;98329.18;431105;1273;139338;-68
2023/07/02 06:38:03;;;;;;;4.90;3.90;;;;;;;20.45;69.75;98333.77;431068;1271;139540;-69
2023/07/02 06:48:27;;;;;;;5.80;3.40;;;;;;;20.39;70.40;98332.33;430946;1272;139674;-69
2023/07/02 06:58:51;;;;;;;3.60;3.20;;;;;;;23.65;68.07;98331.04;431160;1273;139201;-70
2023/07/02 07:09:15;;;;;;;3.90;2.70;;;;;;;25.72;62.69;98332.36;430947;1272;139670;-70
2023/07/02 07:19:39;;;;;;;3.30;3.00;;;;;;;25.39;59.69;98336.68;431073;1272;138825;-70
2023/07/02 07:30:05;;;;;;;4.40;2.30;;;;;;;22.91;61.12;98350.00;431219;1267;260804;-71
2023/07/02 07:40:28;;;;;;;2.90;2.60;;;;;;;21.23;64.02;98367.20;431182;1269;139613;-70
2023/07/02 07:50:53;;;;;;;3.40;2.80;;;;;;;20.82;65.58;98369.52;431532;1273;140685;-71
2023/07/02 08:01:17;;;;;;;3.20;2.90;;;;;;;20.26;67.10;98376.60;431348;1272;139447;-70
2023/07/02 08:11:41;;;;;;;2.10;1.90;;;;;;;20.67;68.42;98379.05;431199;1270;141149;-70
2023/07/02 08:22:07;;;;;;;2.70;1.40;;;;;;;22.18;66.91;98381.16;432150;1272;139873;-71
2023/07/02 08:32:32;;;;;;;1.30;1.20;;;;;;;24.45;63.15;98387.06;431604;1271;142043;-70
2023/07/02 08:42:58;;;;;;;2.10;1.30;;;;;;;25.48;59.91;98391.27;431535;1272;139010;-70
2023/07/02 08:53:29;;;;;;;4.20;1.40;;;;;;;25.12;58.91;98394.92;430725;1267;139026;-71
2023/07/02 09:04:00;;;;;;;1.30;1.20;;;;;;;24.48;58.42;98404.01;430796;1273;138656;-70
2023/07/02 09:14:28;;;;;;;2.40;1.10;;;;;;;24.34;58.25;98406.64;431596;1271;139301;-69
2023/07/02 09:24:57;;;;;;;1.10;1.10;;;;;;;24.23;58.45;98411.95;431533;1267;139502;-70
2023/07/02 09:35:21;;;;;;;1.80;1.20;;;;;;;24.92;58.10;98404.32;431708;1272;139291;-70
2023/07/02 09:45:47;;;;;;;1.10;1.00;;;;;;;26.66;55.60;98395.83;431299;1271;139663;-71
2023/07/02 09:56:11;;;;;;;1.90;1.50;;;;;;;27.09;52.82;98388.52;432223;1268;138666;-71
2023/07/02 10:06:46;;;;;;;4.70;0.90;;;;;;;27.32;52.05;98386.38;431478;1268;138771;-72
2023/07/02 10:17:10;;;;;;;1.00;0.90;;;;;;;26.96;50.76;98387.10;432049;1268;139070;-71
2023/07/02 10:27:36;;;;;;;1.20;0.80;;;;;;;25.74;50.97;98391.80;432046;1272;139578;-72
2023/07/02 10:37:59;;;;;;;1.20;1.10;;;;;;;24.97;51.63;98395.01;431762;1270;139002;-72
2023/07/02 10:48:24;;;;;;;1.40;1.30;;;;;;;24.44;52.77;98389.70;431690;1267;139527;-71
2023/07/02 10:58:51;;;;;;;2.50;1.30;;;;;;;24.00;53.72;98389.14;432250;1272;139949;-71
2023/07/02 11:09:20;;;;;;;2.00;1.50;;;;;;;23.50;54.49;98394.49;431822;1267;139095;-69
2023/07/02 11:19:51;;;;;;;1.60;1.50;;;;;;;22.86;54.65;98409.24;432215;1270;139072;-69
2023/07/02 11:30:15;;;;;;;2.70;1.40;;;;;;;22.43;54.35;98408.36;432031;1271;139260;-70
2023/07/02 11:40:39;;;;;;;3.40;1.30;;;;;;;23.03;54.30;98405.90;431193;1267;138375;-68
2023/07/02 11:51:03;;;;;;;1.90;1.20;;;;;;;24.28;52.24;98408.21;430987;1270;138977;-68
2023/07/02 12:01:27;;;;;;;1.70;0.80;;;;;;;25.06;49.59;98412.02;431453;1268;138433;-67
2023/07/02 12:11:52;;;;;;;3.50;1.40;;;;;;;24.72;48.79;98412.89;431471;1267;139903;-68
2023/07/02 12:22:17;;;;;;;4.60;1.30;;;;;;;23.76;49.11;98419.65;431713;1271;139597;-70
2023/07/02 12:32:41;;;;;;;3.30;1.20;;;;;;;23.22;49.82;98429.61;431152;1267;139034;-67
2023/07/02 12:43:05;;;;;;;2.10;1.80;;;;;;;23.60;49.62;98439.69;431738;1268;140038;-71
2023/07/02 12:53:29;;;;;;;1.10;0.90;;;;;;;24.36;47.54;98441.58;430780;1271;139000;-70
2023/07/02 13:03:53;;;;;;;1.20;1.10;;;;;;;24.16;46.87;98450.56;430871;1267;139231;-67
2023/07/02 13:14:18;;;;;;;1.70;1.20;;;;;;;23.54;47.68;98459.80;431048;1271;139169;-68
2023/07/02 13:24:42;;;;;;;9.40;2.20;;;;;;;23.00;48.02;98470.37;431074;1267;138563;-67
2023/07/02 13:35:07;;;;;;;1.30;1.10;;;;;;;22.93;48.75;98472.88;431165;1267;139109;-67
2023/07/02 13:45:31;;;;;;;1.30;1.20;;;;;;;23.68;48.64;98477.49;430743;1267;139702;-68
2023/07/02 13:55:56;;;;;;;1.20;1.00;;;;;;;24.16;47.87;98469.21;431061;1268;139482;-66
2023/07/02 14:06:22;;;;;;;1.50;1.40;;;;;;;24.21;47.11;98469.80;431613;1268;139552;-66
2023/07/02 14:16:45;;;;;;;1.40;1.30;;;;;;;24.17;46.93;98477.30;431869;1267;139526;-68
2023/07/02 14:27:10;;;;;;;3.10;1.20;;;;;;;24.27;46.70;98478.81;431191;1267;139619;-67
2023/07/02 14:37:34;;;;;;;2.50;1.10;;;;;;;23.92;46.64;98485.77;432093;1267;139205;-66
2023/07/02 14:47:59;;;;;;;1.10;1.10;;;;;;;23.84;47.26;98491.27;431750;1267;139139;-68
2023/07/02 14:58:25;;;;;;;6.90;2.00;;;;;;;24.12;46.98;98484.25;431569;1267;140904;-66
2023/07/02 15:08:49;;;;;;;1.50;1.40;;;;;;;24.47;46.21;98476.54;431287;1272;139649;-67
2023/07/02 15:19:15;;;;;;;2.60;1.60;;;;;;;24.51;45.08;98473.58;431114;1272;139967;-69
2023/07/02 15:29:40;;;;;;;1.40;1.00;;;;;;;24.03;44.70;98467.29;430997;1272;139522;-67
2023/07/02 15:40:05;;;;;;;3.20;1.70;;;;;;;23.75;44.36;98477.16;431113;1271;138806;-67
2023/07/02 15:50:29;;;;;;;3.30;1.80;;;;;;;23.95;43.94;98479.03;431116;1271;138722;-65
2023/07/02 16:00:54;;;;;;;2.80;1.50;;;;;;;23.78;43.17;98486.02;431137;1267;139799;-67
2023/07/02 16:11:18;;;;;;;1.40;1.00;;;;;;;23.62;42.70;98489.98;430972;1267;140610;-66
2023/07/02 16:21:44;;;;;;;2.20;1.50;;;;;;;23.51;42.82;98497.44;431399;1271;139144;-66
2023/07/02 16:32:12;;;;;;;2.50;1.90;;;;;;;23.47;43.00;98503.64;431799;1271;139013;-66
2023/07/02 16:42:36;;;;;;;6.80;1.70;;;;;;;23.48;43.17;98516.48;431894;1267;139806;-67
2023/07/02 16:53:00;;;;;;;5.90;1.80;;;;;;;23.26;42.87;98537.75;431950;1268;139816;-67
2023/07/02 17:03:24;;;;;;;3.50;2.40;;;;;;;22.73;42.80;98551.58;431313;1267;138875;-66
2023/07/02 17:13:49;;;;;;;3.10;1.40;;;;;;;22.30;43.18;98557.23;431176;1267;138500;-65
2023/07/02 17:24:13;;;;;;;2.10;1.10;;;;;;;22.21;43.23;98569.51;431202;1272;138718;-66
2023/07/02 17:34:38;;;;;;;2.40;1.20;;;;;;;21.83;43.43;98588.39;431351;1272;139969;-65
2023/07/02 17:45:02;;;;;;;2.10;1.70;;;;;;;21.43;44.38;98599.05;431730;1272;139158;-67
2023/07/02 17:55:26;;;;;;;5.60;2.10;;;;;;;21.17;45.13;98611.04;431256;1267;138470;-66
2023/07/02 18:05:53;;;;;;;2.70;2.50;;;;;;;21.57;45.09;98624.06;431178;1271;139066;-66
2023/07/02 18:16:18;;;;;;;3.00;1.70;;;;;;;20.96;44.83;98630.62;431178;1267;139515;-66
2023/07/02 18:26:41;;;;;;;2.50;2.00;;;;;;;20.39;45.56;98638.94;431341;1267;138457;-65
2023/07/02 18:37:06;;;;;;;4.30;2.40;;;;;;;19.92;46.25;98648.48;431192;1267;139619;-65
2023/07/02 18:47:30;;;;;;;3.10;2.40;;;;;;;19.45;46.76;98662.66;431191;1267;138933;-66
2023/07/02 18:57:55;;;;;;;5.80;3.70;;;;;;;19.03;47.70;98677.87;431112;1267;139404;-66
2023/07/02 19:08:21;;;;;;;4.40;3.10;;;;;;;18.61;48.54;98694.32;431033;1267;138558;-63
2023/07/02 19:18:45;;;;;;;3.90;2.20;;;;;;;18.18;49.67;98713.56;430712;1271;138882;-63
2023/07/02 19:29:12;;;;;;;6.90;3.30;;;;;;;17.76;50.96;98722.95;431204;1267;172442;-63
2023/07/02 19:39:37;;;;;;;7.90;2.90;;;;;;;17.36;52.14;98734.52;430981;1269;138997;-64
2023/07/02 19:50:01;;;;;;;5.50;3.90;;;;;;;17.01;53.56;98746.66;431115;1272;139173;-63
2023/07/02 20:00:25;;;;;;;7.00;3.40;;;;;;;16.66;54.91;98754.18;430934;1272;139293;-63
2023/07/02 20:10:50;;;;;;;4.90;3.40;;;;;;;16.34;56.02;98764.77;431097;1270;138626;-64
2023/07/02 20:21:14;;;;;;;5.70;3.40;;;;;;;16.02;57.08;98772.10;431247;1272;139370;-65
2023/07/02 20:31:37;;;;;;;6.70;2.80;;;;;;;15.83;57.59;98784.63;431450;1268;138513;-64
2023/07/02 20:42:04;;;;;;;7.10;4.50;;;;;;;15.71;58.13;98791.37;431213;1270;139514;-63
2023/07/02 20:52:28;;;;;;;7.50;3.60;;;;;;;15.57;58.92;98791.73;431667;1268;139103;-63
2023/07/02 21:02:53;;;;;;;13.30;5.10;;;;;;;15.41;59.67;98800.60;431807;1267;140201;-65
2023/07/02 21:13:17;;;;;;;5.60;3.90;;;;;;;15.27;60.40;98806.91;432570;1272;138776;-64
2023/07/02 21:23:41;;;;;;;5.00;3.70;;;;;;;15.12;61.00;98819.25;432036;1272;139493;-64
2023/07/02 21:34:05;;;;;;;7.00;4.10;;;;;;;14.94;61.82;98826.04;430942;1273;139129;-63
2023/07/02 21:44:30;;;;;;;5.70;4.10;;;;;;;14.68;62.67;98838.37;430533;1268;139916;-63
2023/07/02 21:54:54;;;;;;;5.20;4.10;;;;;;;14.44;63.42;98847.20;431485;1273;139978;-64
2023/07/02 22:05:18;;;;;;;6.70;4.10;;;;;;;14.24;64.40;98850.98;431040;1271;139878;-63
2023/07/02 22:15:42;;;;;;;8.70;3.90;;;;;;;14.02;65.10;98858.02;431012;1272;140186;-64
2023/07/02 22:26:07;;;;;;;7.10;4.60;;;;;;;13.79;65.68;98866.25;431619;1273;139790;-64
2023/07/02 22:36:31;;;;;;;5.00;3.80;;;;;;;13.53;66.60;98868.13;431200;1273;139469;-64
2023/07/02 22:46:54;;;;;;;7.40;5.50;;;;;;;13.32;67.78;98869.53;431087;1273;139644;-64
2023/07/02 22:57:18;;;;;;;5.00;4.30;;;;;;;13.08;68.24;98865.80;430883;1272;139858;-63
2023/07/02 23:07:44;;;;;;;6.00;5.40;;;;;;;12.87;68.92;98875.50;431601;1272;139385;-64
2023/07/02 23:18:07;;;;;;;6.70;5.10;;;;;;;12.65;69.47;98880.29;430987;1273;141298;-64
2023/07/02 23:28:33;;;;;;;5.30;4.60;;;;;;;12.41;70.33;98886.34;430857;1273;140396;-64
2023/07/02 23:38:57;;;;;;;10.30;5.00;;;;;;;12.21;71.21;98890.45;430845;1273;139775;-64
2023/07/02 23:49:22;;;;;;;5.90;5.30;;;;;;;12.13;71.82;98886.56;431225;1273;139835;-64
2023/07/02 23:59:46;;;;;;;7.30;4.60;;;;;;;11.97;72.23;98884.45;430726;1273;139807;-64
